AirNav   Air Wisconsin pilot careers
 
 1440 users online  

UT05 Utah National Guard Headquarters Heliport
Draper, Utah, USA

GOING TO DRAPER?


FAA INFORMATION EFFECTIVE 12 OCTOBER 2017

Location

FAA Identifier: UT05
Lat/Long: 40-31-02.8150N / 111-53-19.7640W
40-31.046917N / 111-53.329400W
40.5174486 / -111.8888233
(estimated)
Elevation: 4430 ft. / 1350 m (estimated)
Variation: 15E (1985)
Time zone: UTC -6 (UTC -7 during Standard Time)
Zip code: 84020

Heliport Operations

Heliport use: Private use. Permission required prior to landing
Activation date: 03/1990
Control tower: no
ARTCC: SALT LAKE CITY CENTER
FSS: CEDAR CITY FLIGHT SERVICE STATION
Attendance: MON-FRI 0800-1700
Wind indicator: lighted
Segmented circle: no

Heliport Communications

WX AWOS-3 at U42 (8 nm NW): 134.425 (801-562-0271)
WX ASOS at SLC (17 nm N): PHONE 801-328-3567
WX AWOS-3PT at PVU (19 nm SE): 135.175 (801-373-9782)

Nearby radio navigation aids

VOR radial/distance  VOR name  Freq  Var
FFUr353/14.7FAIRFIELD VORTAC116.6016E
PVUr322/19.7PROVO VOR/DME108.4015E
TCHr152/20.4WASATCH VORTAC116.8016E

Heliport Services

Runway Information

Helipad H1

Dimensions: 100 x 100 ft. / 30 x 30 m
Surface: concrete, in good condition
Traffic pattern: rightleft

Heliport Ownership and Management from official FAA records

Ownership: Publicly-owned
Owner: DAS
12953 S.MINUTEMAN DR. BX 1776
DRAPER, UT 84020
Phone 801-524-3641
Manager: MAJOR PETER WILSON
P.O. BOX 1776
DRAPER, UT 84020
Phone 801-524-3641

Additional Remarks

A52-H1 22' BLDG 200' S & 30' TREES 100' W OF HELIPAD.

Instrument Procedures

There are no published instrument procedures at UT05.

Some nearby airports with instrument procedures:

U42 - South Valley Regional Airport (8 nm NW)
KSLC - Salt Lake City International Airport (17 nm N)
KPVU - Provo Municipal Airport (19 nm SE)
KHCR - Heber City Municipal Airport - Russ McDonald Field (21 nm E)
KTVY - Bolinder Field-Tooele Valley Airport (22 nm W)
 
Loc | Ops | Rwys | IFR | FBO | Links
Com | Nav | Svcs | Stats | Notes

TAC Air
 
Area around UT05 (Utah National Guard Headquarters Heliport)
 
Road maps at: MapQuest Bing Google
 
Aerial photo
No photo
 
Sectional chart

 
Airport distance calculator
Flying to Utah National Guard Headquarters Heliport? Find the distance to fly.

From to UT05

Sunrise and sunset
Times for 20-Oct-2017
 Local
(UTC-6)
 Zulu
(UTC)
Morning civil twilight07:1713:17
Sunrise07:4513:45
Sunset18:4000:40
Evening civil twilight19:0701:07

Current date and time
Zulu (UTC)  20-Oct-2017 18:04:37
Local (UTC-6)  20-Oct-2017 12:04:37
 
METAR
KU42 
8nm NW 
201755Z AUTO 26013G21KT 10SM SCT110 21/00 A2966 RMK AO1 T02101004 10211 20139
KSLC 
16nm N 
201757Z 29028G47KT 2SM R16L/4500VP6000FT HZ BLDU SCT013 BKN023 BKN110 17/01 A2967 RMK AO2 PK WND 29036/1755 WSHFT 1741 PRESRR SH DSNT NW T01670011
KPVU 
20nm SE 
201756Z 22017KT 10SM BKN120 19/02 A2967 RMK AO2 PK WND 21026/1746 SLP006 T01940022 10206 20100 50006
TAF
KSLC 
16nm N 
201451Z 2015/2118 18018G26KT P6SM FEW060 BKN100 FM201800 29020G30KT P6SM SCT040 BKN070 FM202000 33015G25KT P6SM -RA SCT025 OVC040 FM210100 34011KT P6SM SCT035 BKN070
KPVU 
20nm SE 
201120Z 2012/2112 16010KT P6SM SCT120 FM201600 23018KT P6SM FEW080 BKN120 FM201900 32019G32KT P6SM SCT040 BKN060 FM202100 32018G28KT P6SM -SHRA SCT025 OVC040 FM210200 33015KT P6SM VCSH SCT040 BKN070
NOTAMs
Click for the latest NOTAMs
NOTAMs are issued by the DoD/FAA and will open in a separate window not controlled by AirNav.

 

 
 

Would you like to see your business listed on this page?

 If your business provides an interesting product or service to pilots, flight crews, aircraft, or users of the Utah National Guard Headquarters Heliport, you should consider listing it here.  To start the listing process, click on the button below
 
Add a business
 

Other Pages about Utah National Guard Headquarters Heliport

Update a link
 
Copyright © AirNav, LLC. All rights reserved. Privacy Policy  Contact